createdAt,value
2023-02-26T00:06:32.343Z,0.54
2023-02-26T00:16:32.473Z,0.49
2023-02-26T00:26:32.518Z,0.49
2023-02-26T00:36:32.362Z,0.47
2023-02-26T00:46:32.478Z,0.41
2023-02-26T00:56:32.443Z,0.43
2023-02-26T01:06:32.327Z,0.35
2023-02-26T01:16:32.424Z,0.35
2023-02-26T01:26:32.348Z,0.33
2023-02-26T01:36:32.365Z,0.31
2023-02-26T01:46:32.829Z,0.28
2023-02-26T01:56:32.493Z,0.29
2023-02-26T02:06:32.356Z,0.3
2023-02-26T02:16:32.446Z,0.35
2023-02-26T02:26:32.388Z,0.3
2023-02-26T02:36:32.494Z,0.28
2023-02-26T02:46:32.478Z,0.27
2023-02-26T02:56:32.394Z,0.23
2023-02-26T03:06:32.921Z,0.2
2023-02-26T03:16:32.445Z,0.18
2023-02-26T03:26:32.430Z,0.18
2023-02-26T03:36:32.421Z,0.18
2023-02-26T03:46:32.416Z,0.17
2023-02-26T03:56:32.410Z,0.19
2023-02-26T04:06:32.398Z,0.2
2023-02-26T04:16:32.510Z,0.22
2023-02-26T04:26:32.428Z,0.21
2023-02-26T04:36:32.427Z,0.18
2023-02-26T04:46:32.506Z,0.14
2023-02-26T04:56:32.484Z,0.04
2023-02-26T05:06:32.432Z,-0.06
2023-02-26T05:16:32.512Z,-0.13
2023-02-26T05:26:32.440Z,-0.21
2023-02-26T05:36:32.499Z,-0.25
2023-02-26T05:46:32.460Z,-0.28
2023-02-26T05:56:32.521Z,-0.31
2023-02-26T06:06:32.463Z,-0.34
2023-02-26T06:16:32.812Z,-0.37
2023-02-26T06:26:32.478Z,-0.38
2023-02-26T06:36:32.518Z,-0.31
2023-02-26T06:46:32.488Z,-0.14
2023-02-26T06:56:32.508Z,-0.01
2023-02-26T07:16:32.581Z,0.38
2023-02-26T07:26:32.482Z,0.51
2023-02-26T07:36:32.589Z,0.48
2023-02-26T07:46:32.581Z,0.67
2023-02-26T07:56:32.576Z,0.95
2023-02-26T08:06:32.509Z,1.08
2023-02-26T08:16:32.549Z,1.28
2023-02-26T08:26:32.521Z,1.5
2023-02-26T08:36:32.575Z,1.59
2023-02-26T08:46:32.531Z,1.7
2023-02-26T08:56:32.559Z,2.06
2023-02-26T09:06:32.536Z,2.8
2023-02-26T09:16:32.781Z,3.52
2023-02-26T09:26:32.588Z,3.24
2023-02-26T09:36:32.583Z,3.23
2023-02-26T09:46:32.619Z,3.09
2023-02-26T09:56:32.622Z,3.16
2023-02-26T10:06:32.599Z,2.89
2023-02-26T10:16:32.632Z,3.16
2023-02-26T10:26:32.585Z,3.24
2023-02-26T10:36:32.632Z,2.91
2023-02-26T10:46:32.638Z,2.99
2023-02-26T10:56:32.620Z,3.24
2023-02-26T11:06:32.611Z,2.85
2023-02-26T11:16:32.591Z,2.88
2023-02-26T11:26:32.589Z,2.63
2023-02-26T11:36:32.687Z,2.63
2023-02-26T11:46:32.717Z,2.82
2023-02-26T11:56:32.648Z,2.78
2023-02-26T12:06:32.584Z,2.48
2023-02-26T12:16:32.652Z,2.39
2023-02-26T12:26:32.588Z,2.38
2023-02-26T12:36:46.611Z,2.22
2023-02-26T12:46:32.743Z,2.2
2023-02-26T12:56:32.629Z,2.32
2023-02-26T13:06:32.654Z,2.15
2023-02-26T13:16:32.706Z,2.03
2023-02-26T13:26:32.640Z,1.98
2023-02-26T13:36:35.017Z,1.94
2023-02-26T13:46:32.629Z,2.12
2023-02-26T13:56:32.678Z,2.06
2023-02-26T14:06:32.617Z,1.96
2023-02-26T14:16:32.662Z,1.83
2023-02-26T14:26:32.665Z,1.67
2023-02-26T14:36:32.691Z,1.53
2023-02-26T14:46:32.742Z,1.45
2023-02-26T14:56:32.647Z,1.38
2023-02-26T15:06:32.636Z,1.3
2023-02-26T15:16:32.706Z,1.22
2023-02-26T15:26:32.666Z,1.11
2023-02-26T15:36:32.752Z,0.98
2023-02-26T15:46:32.730Z,0.89
2023-02-26T15:56:32.776Z,0.79
2023-02-26T16:06:32.729Z,0.7
2023-02-26T16:16:32.723Z,0.57
2023-02-26T16:26:32.714Z,0.45
2023-02-26T16:36:32.696Z,0.42
2023-02-26T16:46:32.725Z,0.33
2023-02-26T16:56:32.736Z,0.24
2023-02-26T17:06:32.719Z,0.16
2023-02-26T17:16:32.772Z,0.07
2023-02-26T17:26:32.724Z,-0.02
2023-02-26T17:36:32.759Z,-0.03
2023-02-26T17:46:32.698Z,-0.03
2023-02-26T17:56:32.778Z,-0.05
2023-02-26T18:06:32.754Z,-0.02
2023-02-26T18:16:32.804Z,0
2023-02-26T18:26:32.742Z,-0.02
2023-02-26T18:36:32.773Z,-0.02
2023-02-26T18:46:32.802Z,0
2023-02-26T18:56:32.777Z,0.24
2023-02-26T19:06:32.787Z,0.2
2023-02-26T19:16:32.777Z,0.22
2023-02-26T19:26:32.764Z,0.12
2023-02-26T19:36:32.880Z,0.03
2023-02-26T19:46:32.776Z,-0.05
2023-02-26T19:56:32.827Z,-0.26
2023-02-26T20:06:32.771Z,-0.4
2023-02-26T20:16:32.806Z,-0.46
2023-02-26T20:26:32.818Z,-0.46
2023-02-26T20:36:32.846Z,-0.45
2023-02-26T20:46:32.858Z,-0.53
2023-02-26T20:56:32.834Z,-0.63
2023-02-26T21:06:32.844Z,-0.78
2023-02-26T21:16:32.884Z,-0.85
2023-02-26T21:26:34.362Z,-0.94
2023-02-26T21:36:32.904Z,-0.98
2023-02-26T21:46:32.872Z,-0.99
2023-02-26T22:06:32.891Z,-1.06
2023-02-26T22:16:32.947Z,-1
2023-02-26T22:26:32.887Z,-1.01
2023-02-26T22:36:32.922Z,-1.06
2023-02-26T22:46:32.900Z,-1.12
2023-02-26T22:56:32.890Z,-1.15
2023-02-26T23:06:32.922Z,-1.18
2023-02-26T23:16:32.922Z,-1.18
2023-02-26T23:26:32.952Z,-1.23
2023-02-26T23:36:32.988Z,-1.3
2023-02-26T23:46:33.002Z,-1.32
2023-02-26T23:56:32.927Z,-1.34
